Tiempo atmosférico en la estación meteorológica de Degaña, Asturias (1305 m.)



Fecha
DESCASC
Temp. máxima en grados centígrados (hora)
DESCASC
Temp. mínima en grados centígrados (hora)
DESCASC
Temp. media en grados centígrados
DESCASC
Racha de viento máxima en m/sg (hora)
DESCASC
Velocidad máxima media en intervalos de 10 minutos(hora)
DESCASC
Precipitaciones diarias en mm
DESCASC
Precipitaciones de 00:00 a 06:00 en mm
DESCASC
Precipitaciones de 06:00 a 12:00 en mm
DESCASC
Precipitaciones de 12:00 a 18:00 en mm
DESCASC
Precipitaciones de 18:00 a 24:00 en mm
DESCASC
23-06-2019 15.8 (00:10) 9.8 (04:40) 12.8 6.94 (12:50) 3.06 (14:40) 17.6 3.2 11.6 2.8 0
22-06-2019 21.6 (17:00) 9.5 (00:40) 15.6 9.72 (08:50) 6.39 (08:30) 0 0 0 0 0
21-06-2019 17.6 (16:10) 5.9 (06:30) 11.8 6.67 (18:10) 3.06 (18:10) 0.2 0.2 0 0 0
20-06-2019 14.7 (14:10) 8.3 (00:00) 11.5 5.83 (15:00) 3.06 (14:50) 5.8 0 0 0 5.8
19-06-2019 15.6 (16:00) 10 (00:00) 12.8 5.56 (02:20) 1.94 (09:10) 0.4 0.4 0 0 0
18-06-2019 16.9 (10:10) 11.4 (00:00) 14.1 9.72 (16:40) 3.06 (09:10) 9.8 0 0 1.4 8.4
17-06-2019 21.1 (13:30) 8.3 (00:00) 14.7 7.5 (11:50) 3.33 (11:00) 0 0 0 0 0
16-06-2019 21.2 (17:30) 5.2 (00:00) 13.2 6.94 (06:50) 4.17 (08:00) 0 0 0 0 0
15-06-2019 16.8 (17:40) 4.4 (00:00) 10.6 6.11 (19:30) 3.89 (20:50) 0.4 0.4 0 0 0
14-06-2019 13.6 (13:40) 1.3 (00:00) 7.5 7.22 (16:10) 3.89 (17:50) 1.4 0 0 0 1.4
13-06-2019 13.1 (15:50) 2.9 (00:00) 8 7.5 (17:10) 4.17 (17:10) 0 0 0 0 0
12-06-2019 11.4 (17:10) 1.7 (00:00) 6.5 6.67 (18:50) 3.61 (18:50) 1.2 1 0.2 0 0
11-06-2019 6.4 (17:50) 2.4 (00:00) 4.4 7.22 (08:50) 3.06 (11:10) 11.6 3.6 5.4 2 0.6
10-06-2019 13.2 (15:10) 1 (00:00) 7.1 6.39 (17:50) 3.33 (17:20) 0.6 0 0 0 0.6
09-06-2019 13.1 (13:30) 2.3 (00:00) 7.7 7.5 (17:50) 4.17 (17:40) 0 0 0 0 0
08-06-2019 13.5 (15:40) -0.1 (00:00) 6.7 6.67 (08:50) 4.44 (08:50) 0.2 0 0.2 0 0
07-06-2019 6.9 (17:00) 0.8 (00:00) 3.9 10.28 (12:30) 4.17 (14:00) 11.2 7.2 2 1 1
06-06-2019 8.7 (13:20) 0.9 (00:00) 4.8 15.56 (18:00) 4.17 (12:10) 29 0 0 15 14
05-06-2019 6.8 (16:00) 2.2 (00:00) 4.5 5.28 (16:20) 2.22 (16:20) 10.2 1.4 3.6 3 2.2
04-06-2019 12.3 (00:10) 5.1 (00:00) 8.7 5.56 (12:20) 2.5 (12:20) 9.4 0 0.4 8.6 0.4
03-06-2019 22.3 (16:40) 9.8 (00:00) 16 6.39 (16:00) 2.5 (14:10) 0 0 0 0 0
02-06-2019 22.8 (13:20) 9.3 (00:00) 16 4.72 (16:10) 1.94 (01:00) 0 0 0 0 0
01-06-2019 26.8 (16:20) 13.2 (00:00) 20 7.22 (02:40) 4.44 (02:50) 0 0 0 0 0
31-05-2019 26.2 (15:20) 10.9 (00:00) 18.6 6.67 (00:50) 4.72 (00:50) 0 0 0 0 0
30-05-2019 25.5 (15:30) 8.5 (00:00) 17 8.89 (20:10) 5 (01:10) 0 0 0 0 0
29-05-2019 19.8 (17:40) 2.3 (00:00) 11 8.06 (16:10) 3.61 (16:30) 0 0 0 0 0
28-05-2019 13.8 (17:00) 2.5 (00:00) 8.2 9.44 (17:00) 3.89 (15:50) 0 0 0 0 0

Gráficas

Temp. máximas Temp. mínimas Temp. medias Precipitaciones Rachas de viento máximas Velocidades máximas media en intervalos de 10 minutos

Datos horarios

Fecha y hora oficial Temperatura (ºC) Velocidad del viento (km/h) Dirección del viento Racha (km/h) Dirección de racha Precipitación (mm) Presión (hPa) Tendencia (hPa) Humedad (%)
2019-06-26 23:00:00 -- -- -- -- -- -- -- -- --
2019-06-26 22:00:00 -- -- -- -- -- -- -- -- --
2019-06-26 21:00:00 21.5 2 Norte 26 Oeste 0 -- -- 53
2019-06-26 20:00:00 23 5 Sur 28 Oeste 0 -- -- 45
2019-06-26 19:00:00 22.9 6 Noroeste 30 Oeste 0 -- -- 45
2019-06-26 18:00:00 22.5 11 Noroeste 31 Noroeste 0 -- -- 47
2019-06-26 17:00:00 22.4 11 Noroeste 31 Oeste 0 -- -- 46
2019-06-26 16:00:00 21.5 12 Oeste 32 Oeste 0 -- -- 50
2019-06-26 15:00:00 21.7 9 Noroeste 37 Noroeste 0 -- -- 55
2019-06-26 14:00:00 19.9 6 Norte 21 Noroeste 0 -- -- 61
2019-06-26 13:00:00 19.5 6 Noroeste 37 Sudoeste 0 -- -- 66
2019-06-26 12:00:00 20.4 9 Noroeste 37 Sudeste 0 -- -- 59
2019-06-26 11:00:00 20 12 Este 44 Sudeste 0 -- -- 63
2019-06-26 10:00:00 19.8 9 Sudeste 32 Este 0 -- -- 68
2019-06-26 09:00:00 18.4 15 Este 33 Este 0 -- -- 71
2019-06-26 08:00:00 16.7 15 Nordeste 27 Este 0 -- -- 76
2019-06-26 07:00:00 15.8 13 Nordeste 22 Nordeste 0 -- -- 77
2019-06-26 06:00:00 12.8 10 Este 20 Nordeste 0 -- -- 93
2019-06-26 05:00:00 12.1 4 Sudoeste 18 Nordeste 0 -- -- 94
2019-06-26 04:00:00 13.2 8 Sudeste 24 Este 0 -- -- 90
2019-06-26 03:00:00 14.4 8 Este 23 Nordeste 0 -- -- 85
2019-06-26 02:00:00 12.2 3 Este 12 Este 0 -- -- 99
2019-06-26 01:00:00 12.8 2 Este 8 Este 0 -- -- 98
2019-06-26 00:00:00 13 0 Calma 4 Oeste 0 -- -- 99
2019-06-25 23:00:00 13.2 0 Calma 5 Sudeste 0 -- -- 98
2019-06-25 22:00:00 13.6 2 Oeste 4 Noroeste 0 -- -- 93
2019-06-25 21:00:00 15.1 2 Sudoeste 5 Sudeste 0 -- -- 90
2019-06-25 20:00:00 15.3 3 Sudeste 8 Sudoeste 0 -- -- 90
2019-06-25 19:00:00 16 2 Sudoeste 6 Sur 0 -- -- 86
2019-06-25 18:00:00 15.8 2 Sudoeste 11 Este 0 -- -- 85
2019-06-25 17:00:00 17.5 6 Sudeste 14 Sudeste 0 -- -- 75
2019-06-25 16:00:00 16 3 Sudeste 11 Noroeste 0 -- -- 81
2019-06-25 15:00:00 15.9 3 Sur 23 Este 0 -- -- 83
2019-06-25 14:00:00 14.2 7 Sudeste 18 Este 0 -- -- 85
2019-06-25 13:00:00 13.1 6 Noroeste 15 Noroeste 0 -- -- 88
2019-06-25 12:00:00 13.1 3 Nordeste 19 Este 0 -- -- 87
2019-06-25 11:00:00 13.3 4 Nordeste 13 Este 0 -- -- 86
2019-06-25 10:00:00 13.5 3 Nordeste 15 Este 0 -- -- 80
2019-06-25 09:00:00 12.8 10 Nordeste 24 Nordeste 0 -- -- 86
2019-06-25 08:00:00 10.3 12 Nordeste 19 Este 0 -- -- 95
2019-06-25 07:00:00 9.9 10 Nordeste 18 Este 0 -- -- 96
2019-06-25 06:00:00 9.8 7 Nordeste 13 Nordeste 0 -- -- 96
2019-06-25 05:00:00 10 4 Norte 21 Este 0 -- -- 97
2019-06-25 04:00:00 9.8 11 Nordeste 21 Este 0 -- -- 98
2019-06-25 03:00:00 9.6 11 Nordeste 19 Este 0 -- -- 99
2019-06-25 02:00:00 9.1 5 Noroeste 13 Nordeste 0 -- -- 97
2019-06-25 01:00:00 9.7 0 Calma 13 Nordeste 0 -- -- 98
2019-06-25 00:00:00 9.6 7 Nordeste 16 Este 0 -- -- 100
2019-06-24 23:00:00 9.7 4 Noroeste 8 Noroeste 0 -- -- 98
2019-06-24 22:00:00 11.3 2 Noroeste 8 Norte 0 -- -- 96
2019-06-24 21:00:00 12.5 2 Sudeste 13 Este 0 -- -- 94
2019-06-24 20:00:00 11.8 8 Este 18 Este 0 -- -- 93
2019-06-24 19:00:00 12.4 2 Sudeste 16 Este 0 -- -- 93
2019-06-24 18:00:00 13 2 Este 5 Sur 0 -- -- 95
2019-06-24 17:00:00 12.5 3 Sudeste 13 Este 0 -- -- 94
2019-06-24 16:00:00 11.5 2 Norte 13 Nordeste 0.4 -- -- 97
2019-06-24 15:00:00 11.4 5 Este 12 Este 0.8 -- -- 92
2019-06-24 14:00:00 11.1 2 Norte 8 Norte 2.2 -- -- 96
2019-06-24 13:00:00 12.2 4 Noroeste 12 Norte 2 -- -- 95
2019-06-24 12:00:00 12.1 4 Nordeste 9 Norte 1.2 -- -- 100
2019-06-24 11:00:00 12 2 Noroeste 7 Noroeste 0.2 -- -- 99
2019-06-24 10:00:00 12.7 0 Calma 9 Sudeste 0 -- -- 99
2019-06-24 09:00:00 13.2 3 Nordeste 18 Nordeste 0 -- -- 96
2019-06-24 08:00:00 12.6 4 Noroeste 8 Sur 0 -- -- 99
2019-06-24 07:00:00 12.1 4 Nordeste 17 Este 1.8 -- -- 99
2019-06-24 06:00:00 12.8 9 Este 17 Este 0.2 -- -- 98
2019-06-24 05:00:00 12.7 3 Noroeste 9 Sudeste 0 -- -- 99
2019-06-24 04:00:00 12.7 2 Noroeste 9 Sudeste 0.6 -- -- 99
2019-06-24 03:00:00 12.4 3 Norte 6 Norte 2.4 -- -- 99
2019-06-24 02:00:00 12.4 2 Norte 7 Nordeste 0.2 -- -- 98
2019-06-24 01:00:00 12.6 4 Noroeste 10 Sudeste 1 -- -- 95
2019-06-24 00:00:00 13.2 4 Noroeste 9 Oeste 0 -- -- 97
2019-06-23 23:00:00 13.2 3 Noroeste 7 Oeste 0 -- -- 96
2019-06-23 22:00:00 13.6 3 Noroeste 5 Sur 0 -- -- 95
2019-06-23 21:00:00 14 0 Calma 6 Sur 0 -- -- 93
2019-06-23 20:00:00 14.6 0 Calma 10 Oeste 0 -- -- 91
2019-06-23 19:00:00 15 2 Este 16 Este 0 -- -- 91
2019-06-23 18:00:00 14.7 4 Norte 11 Sudeste 0 -- -- 93
2019-06-23 17:00:00 15.1 4 Sudeste 13 Oeste 0.6 -- -- 94
2019-06-23 16:00:00 14.8 3 Nordeste 23 Sudeste 0.2 -- -- 92
2019-06-23 15:00:00 14.7 5 Sudeste 24 Sudeste 0.2 -- -- 91
2019-06-23 14:00:00 14.9 8 Sudeste 20 Oeste 0 -- -- 88
2019-06-23 13:00:00 12.4 9 Noroeste 25 Oeste 1.8 -- -- 93
2019-06-23 12:00:00 12.8 4 Sudeste 18 Este 3.2 -- -- 96
2019-06-23 11:00:00 12 7 Este 17 Este 5.6 -- -- 96
2019-06-23 10:00:00 12.9 4 Norte 14 Este 1.6 -- -- 91
2019-06-23 09:00:00 12.6 5 Sudeste 18 Sudeste 0 -- -- 86
2019-06-23 08:00:00 11.5 5 Norte 12 Nordeste 0 -- -- 93
2019-06-23 07:00:00 10.4 6 Este 20 Sudeste 1.2 -- -- 93
2019-06-23 06:00:00 10.2 6 Nordeste 15 Sudeste 1 -- -- 93
2019-06-23 05:00:00 9.8 3 Norte 12 Sudeste 2 -- -- 92
2019-06-23 04:00:00 11.8 5 Noroeste 11 Noroeste 0.2 -- -- 75
2019-06-23 03:00:00 13.8 2 Noroeste 12 Noroeste 0 -- -- 58
2019-06-23 02:00:00 14 3 Nordeste 14 Sudeste 0 -- -- 67
2019-06-23 01:00:00 15.5 8 Este 17 Sur 0 -- -- 58
2019-06-23 00:00:00 15.7 8 Sudeste 20 Este 0 -- -- 58
2019-06-22 23:00:00 14.6 3 Norte 5 Noroeste 0 -- -- 82
2019-06-22 22:00:00 16.6 0 Calma 6 Oeste 0 -- -- 73
2019-06-22 21:00:00 18.3 2 Norte 6 Nordeste 0 -- -- 61
2019-06-22 20:00:00 20 3 Noroeste 14 Sur 0 -- -- 49
2019-06-22 19:00:00 20.7 5 Nordeste 21 Sudoeste 0 -- -- 46
2019-06-22 18:00:00 21.4 7 Noroeste 27 Este 0 -- -- 46
2019-06-22 17:00:00 21.6 6 Norte 20 Noroeste 0 -- -- 44
2019-06-22 16:00:00 19.9 11 Noroeste 26 Noroeste 0 -- -- 45
2019-06-22 15:00:00 19.3 7 Noroeste 22 Nordeste 0 -- -- 50
2019-06-22 14:00:00 18.1 6 Norte 23 Noroeste 0 -- -- 53
2019-06-22 13:00:00 17.8 9 Norte 26 Sudeste 0 -- -- 52
2019-06-22 12:00:00 16.9 9 Sudoeste 21 Sur 0 -- -- 53
2019-06-22 11:00:00 14.1 12 Este 25 Este 0 -- -- 68
2019-06-22 10:00:00 12.3 17 Nordeste 31 Este 0 -- -- 73
2019-06-22 09:00:00 11.4 19 Nordeste 35 Este 0 -- -- 77
2019-06-22 08:00:00 10.6 23 Nordeste 34 Nordeste 0 -- -- 83
2019-06-22 07:00:00 10.5 11 Nordeste 29 Nordeste 0 -- -- 83
2019-06-22 06:00:00 10.2 19 Nordeste 28 Este 0 -- -- 86
2019-06-22 05:00:00 10.3 14 Nordeste 26 Este 0 -- -- 87
2019-06-22 04:00:00 10.5 10 Nordeste 27 Nordeste 0 -- -- 87
2019-06-22 03:00:00 10.8 13 Nordeste 21 Nordeste 0 -- -- 86
2019-06-22 02:00:00 11.7 10 Nordeste 19 Este 0 -- -- 81
2019-06-22 01:00:00 9.5 4 Norte 8 Noroeste 0 -- -- 95
2019-06-22 00:00:00 10.6 0 Calma 4 Este 0 -- -- 95
2019-06-21 23:00:00 11.3 0 Calma 4 Sudeste 0 -- -- 94
2019-06-21 22:00:00 11.8 2 Nordeste 8 Sur 0 -- -- 91
2019-06-21 21:00:00 13.3 4 Sudoeste 14 Oeste 0 -- -- 85
2019-06-21 20:00:00 14.7 2 Sur 16 Oeste 0 -- -- 81
2019-06-21 19:00:00 15.4 4 Noroeste 24 Noroeste 0 -- -- 75
2019-06-21 18:00:00 15.9 6 Noroeste 22 Noroeste 0 -- -- 75
2019-06-21 17:00:00 17.4 6 Sur 21 Sur 0 -- -- 72
2019-06-21 16:00:00 16.9 5 Noroeste 15 Sudeste 0 -- -- 59
2019-06-21 15:00:00 15.5 4 Sudoeste 13 Sudeste 0 -- -- 67
2019-06-21 14:00:00 14.8 4 Noroeste 15 Oeste 0 -- -- 84
2019-06-21 13:00:00 14.1 4 Sudoeste 15 Sur 0 -- -- 82
2019-06-21 12:00:00 13.1 4 Sudoeste 13 Sur 0 -- -- 86
2019-06-21 11:00:00 10.4 2 Sur 9 Sudoeste 0 -- -- 98
2019-06-21 10:00:00 9.1 3 Sudeste 7 Sudeste 0 -- -- 100
2019-06-21 09:00:00 7.6 0 Calma 4 Noroeste 0 -- -- 100
2019-06-21 08:00:00 7.1 0 Calma 3 Sur 0 -- -- 100
2019-06-21 07:00:00 6.1 0 Calma 4 Oeste 0 -- -- 100
2019-06-21 06:00:00 6.4 3 Oeste 9 Este 0 -- -- 99
2019-06-21 05:00:00 7.6 2 Norte 4 Nordeste 0 -- -- 100
2019-06-21 04:00:00 7.7 0 Calma 5 Noroeste 0 -- -- 100
2019-06-21 03:00:00 7.9 4 Nordeste 14 Nordeste 0 -- -- 100
2019-06-21 02:00:00 7.9 0 Calma 2 Sudeste 0.2 -- -- 100
2019-06-21 01:00:00 8.1 0 Calma 8 Este 0 -- -- 100
2019-06-21 00:00:00 8.3 0 Calma 5 Oeste 0 -- -- 100
2019-06-20 23:00:00 8.4 2 Sur 15 Nordeste 0 -- -- 100
2019-06-20 22:00:00 8.8 2 Noroeste 14 Este 0.2 -- -- 99
2019-06-20 21:00:00 9 2 Sur 5 Sudeste 1.8 -- -- 99
2019-06-20 20:00:00 9.3 0 Calma 12 Este 0.4 -- -- 99
2019-06-20 19:00:00 9.7 3 Sudeste 12 Sudoeste 3.4 -- -- 98
2019-06-20 18:00:00 10.6 4 Sudeste 19 Oeste 0 -- -- 94
2019-06-20 17:00:00 11.6 4 Oeste 21 Noroeste 0 -- -- 91
2019-06-20 16:00:00 11.1 5 Noroeste 21 Norte 0 -- -- 94
2019-06-20 15:00:00 11.9 7 Noroeste 21 Noroeste 0 -- -- 89
2019-06-20 14:00:00 14.6 5 Sudeste 16 Sur 0 -- -- 82
2019-06-20 13:00:00 13.1 4 Oeste 14 Sudoeste 0 -- -- 84
2019-06-20 12:00:00 12.1 2 Este 10 Sudeste 0 -- -- 87
2019-06-20 11:00:00 13 8 Sur 18 Sudeste 0 -- -- 85
2019-06-20 10:00:00 11.3 4 Sudoeste 12 Este 0 -- -- 88
2019-06-20 09:00:00 11.1 5 Este 13 Este 0 -- -- 87
2019-06-20 08:00:00 8.8 4 Sudeste 12 Nordeste 0 -- -- 94
2019-06-20 07:00:00 9 0 Calma 3 Noroeste 0 -- -- 97
2019-06-20 06:00:00 9.2 0 Calma 3 Sudeste 0 -- -- 96
2019-06-20 05:00:00 9.2 0 Calma 3 Noroeste 0 -- -- 96
2019-06-20 04:00:00 9.1 0 Calma 5 Norte 0 -- -- 97
2019-06-20 03:00:00 9 2 Noroeste 4 Noroeste 0 -- -- 95
2019-06-20 02:00:00 9.9 0 Calma 3 Noroeste 0 -- -- 96
2019-06-20 01:00:00 10 2 Noroeste 5 Noroeste 0 -- -- 95
2019-06-20 00:00:00 10.4 0 Calma 5 Noroeste 0 -- -- 94
2019-06-19 23:00:00 10.8 0 Calma 5 Sur 0 -- -- 94
2019-06-19 22:00:00 11.5 0 Calma 4 Sur 0 -- -- 91
2019-06-19 21:00:00 12 0 Calma 8 Noroeste 0 -- -- 88
2019-06-19 20:00:00 12.9 3 Nordeste 6 Sudeste 0 -- -- 84
2019-06-19 19:00:00 13.8 3 Nordeste 9 Sudoeste 0 -- -- 80
2019-06-19 18:00:00 13.9 3 Norte 10 Sur 0 -- -- 81
2019-06-19 17:00:00 14.7 4 Nordeste 12 Nordeste 0 -- -- 79
2019-06-19 16:00:00 15.6 4 Noroeste 12 Sur 0 -- -- 72
2019-06-19 15:00:00 14.3 3 Este 9 Sudeste 0 -- -- 81
2019-06-19 14:00:00 13.4 3 Sudeste 12 Sur 0 -- -- 83
2019-06-19 13:00:00 13 3 Noroeste 14 Sur 0 -- -- 88
2019-06-19 12:00:00 12.1 4 Noroeste 13 Sur 0 -- -- 88
2019-06-19 11:00:00 11.6 2 Norte 12 Noroeste 0 -- -- 89
2019-06-19 10:00:00 11 4 Noroeste 13 Oeste 0 -- -- 89
2019-06-19 09:00:00 10.3 6 Noroeste 13 Noroeste 0 -- -- 92
2019-06-19 08:00:00 10.1 3 Norte 12 Sudeste 0 -- -- 92
2019-06-19 07:00:00 10 2 Noroeste 15 Nordeste 0 -- -- 94
2019-06-19 06:00:00 10.4 3 Norte 15 Nordeste 0.2 -- -- 93
2019-06-19 05:00:00 10.6 5 Nordeste 15 Sur 0 -- -- 90
2019-06-19 04:00:00 10.6 3 Norte 15 Oeste 0 -- -- 91
2019-06-19 03:00:00 10.9 5 Noroeste 20 Sudoeste 0 -- -- 91
2019-06-19 02:00:00 11 5 Oeste 17 Norte 0.2 -- -- 90
2019-06-19 01:00:00 11.1 4 Noroeste 13 Oeste 0 -- -- 94
2019-06-19 00:00:00 11.4 4 Norte 32 Sur 0.2 -- -- 92
2019-06-18 23:00:00 11.7 6 Este 27 Sur 0.2 -- -- 94
2019-06-18 22:00:00 11.6 7 Nordeste 21 Sur 1.2 -- -- 95
2019-06-18 21:00:00 11.7 6 Nordeste 18 Este 3.6 -- -- 94
2019-06-18 20:00:00 12.2 9 Nordeste 24 Nordeste 1.4 -- -- 91
2019-06-18 19:00:00 12.3 5 Este 34 Este 1.8 -- -- 87
2019-06-18 18:00:00 13 4 Este 28 Oeste 1.2 -- -- 88
2019-06-18 17:00:00 15 8 Noroeste 35 Sur 0 -- -- 71
2019-06-18 16:00:00 12.5 6 Este 19 Sudoeste 0.2 -- -- 87
2019-06-18 15:00:00 12.9 5 Sudeste 19 Noroeste 0 -- -- 83
2019-06-18 14:00:00 13.3 5 Norte 17 Norte 0 -- -- 79
2019-06-18 13:00:00 13.6 4 Este 14 Nordeste 0 -- -- 76
2019-06-18 12:00:00 13.3 5 Norte 16 Noroeste 0 -- -- 72
2019-06-18 11:00:00 15.9 4 Norte 26 Noroeste 0 -- -- 47
2019-06-18 10:00:00 16.5 4 Oeste 30 Oeste 0 -- -- 42
2019-06-18 09:00:00 15.6 8 Noroeste 22 Oeste 0 -- -- 43
2019-06-18 08:00:00 13 9 Noroeste 17 Oeste 0 -- -- 50
2019-06-18 07:00:00 13.1 6 Nordeste 16 Oeste 0 -- -- 50
2019-06-18 06:00:00 13.4 6 Oeste 23 Noroeste 0 -- -- 47
2019-06-18 05:00:00 12.6 8 Noroeste 15 Noroeste 0 -- -- 52
2019-06-18 04:00:00 12.9 6 Noroeste 22 Norte 0 -- -- 50
2019-06-18 03:00:00 13.7 5 Nordeste 18 Sudeste 0 -- -- 46
2019-06-18 02:00:00 12.5 4 Norte 14 Este 0 -- -- 52
2019-06-18 01:00:00 12.2 2 Este 13 Norte 0 -- -- 54
2019-06-18 00:00:00 14.1 3 Nordeste 10 Norte 0 -- -- 42
2019-06-17 23:00:00 14.7 3 Nordeste 13 Sur 0 -- -- 40
2019-06-17 22:00:00 15.6 5 Sudeste 14 Sudeste 0 -- -- 33
2019-06-17 21:00:00 16.4 4 Nordeste 12 Noroeste 0 -- -- 38
2019-06-17 20:00:00 17.5 3 Nordeste 12 Sudeste 0 -- -- 34
2019-06-17 19:00:00 18.5 2 Oeste 14 Sudeste 0 -- -- 33
2019-06-17 18:00:00 18.8 4 Oeste 15 Oeste 0 -- -- 27
2019-06-17 17:00:00 19.7 4 Nordeste 14 Norte 0 -- -- 30
2019-06-17 16:00:00 20.9 3 Noroeste 15 Sudeste 0 -- -- 34
2019-06-17 15:00:00 20.5 8 Noroeste 27 Sudoeste 0 -- -- 36
2019-06-17 14:00:00 21 7 Noroeste 22 Noroeste 0 -- -- 36
2019-06-17 13:00:00 20.7 7 Sur 21 Oeste 0 -- -- 38
2019-06-17 12:00:00 19.8 7 Este 27 Este 0 -- -- 47
2019-06-17 11:00:00 18.2 12 Oeste 24 Oeste 0 -- -- 49
2019-06-17 10:00:00 16.9 8 Sur 26 Sur 0 -- -- 51
2019-06-17 09:00:00 15 8 Nordeste 19 Nordeste 0 -- -- 60
2019-06-17 08:00:00 11.2 5 Norte 13 Nordeste 0 -- -- 74
2019-06-17 07:00:00 9.4 3 Noroeste 8 Sur 0 -- -- 78
2019-06-17 06:00:00 9.6 4 Noroeste 7 Sur 0 -- -- 80
2019-06-17 05:00:00 8.6 3 Noroeste 6 Noroeste 0 -- -- 90
2019-06-17 04:00:00 8.4 4 Noroeste 6 Oeste 0 -- -- 95
2019-06-17 03:00:00 8.8 4 Noroeste 7 Noroeste 0 -- -- 97
2019-06-17 02:00:00 9.6 4 Noroeste 17 Nordeste 0 -- -- 94
2019-06-17 01:00:00 11.2 0 Calma 5 Nordeste 0 -- -- 96
2019-06-17 00:00:00 11.3 0 Calma 4 Noroeste 0 -- -- 97
2019-06-16 23:00:00 11.5 2 Noroeste 4 Oeste 0 -- -- 90
2019-06-16 22:00:00 13.2 0 Calma 15 Norte 0 -- -- 88
2019-06-16 21:00:00 14.7 4 Norte 20 Noroeste 0 -- -- 80
2019-06-16 20:00:00 16.2 6 Norte 21 Oeste 0 -- -- 74
2019-06-16 19:00:00 17.7 10 Noroeste 20 Noroeste 0 -- -- 66
2019-06-16 18:00:00 19.6 9 Noroeste 24 Noroeste 0 -- -- 52
2019-06-16 17:00:00 20.6 5 Sur 13 Sudeste 0 -- -- 42
2019-06-16 16:00:00 19.5 6 Noroeste 18 Sudoeste 0 -- -- 40
2019-06-16 15:00:00 19.7 6 Oeste 18 Sudoeste 0 -- -- 42
2019-06-16 14:00:00 18.8 6 Noroeste 18 Noroeste 0 -- -- 42
2019-06-16 13:00:00 18 4 Noroeste 18 Sur 0 -- -- 46
2019-06-16 12:00:00 17.5 9 Sudeste 22 Sudeste 0 -- -- 47
2019-06-16 11:00:00 16.4 4 Sudeste 13 Sur 0 -- -- 50
2019-06-16 10:00:00 14.1 3 Este 19 Nordeste 0 -- -- 52
2019-06-16 09:00:00 10.9 15 Este 24 Este 0 -- -- 73
2019-06-16 08:00:00 7.9 15 Nordeste 25 Nordeste 0 -- -- 85
2019-06-16 07:00:00 7.7 14 Nordeste 25 Nordeste 0 -- -- 86
2019-06-16 06:00:00 7.7 8 Nordeste 21 Este 0 -- -- 86
2019-06-16 05:00:00 7.1 10 Este 17 Este 0 -- -- 95
2019-06-16 04:00:00 5.4 3 Oeste 6 Noroeste 0 -- -- 97
2019-06-16 03:00:00 5.3 3 Noroeste 6 Noroeste 0 -- -- 97
2019-06-16 02:00:00 5.8 0 Calma 4 Noroeste 0 -- -- 95
2019-06-16 01:00:00 7.1 0 Calma 3 Oeste 0 -- -- 93
2019-06-16 00:00:00 8.5 0 Calma 3 Noroeste 0 -- -- 92
2019-06-15 23:00:00 8.8 0 Calma 6 Oeste 0 -- -- 91
2019-06-15 22:00:00 9.6 2 Oeste 19 Oeste 0 -- -- 88
2019-06-15 21:00:00 11.4 10 Noroeste 21 Oeste 0 -- -- 78
2019-06-15 20:00:00 13.4 11 Noroeste 22 Noroeste 0 -- -- 67
2019-06-15 19:00:00 15.4 4 Norte 12 Sur 0 -- -- 59
2019-06-15 18:00:00 16.4 4 Este 16 Sur 0 -- -- 58
2019-06-15 17:00:00 16 5 Este 19 Noroeste 0 -- -- 54
2019-06-15 16:00:00 14.9 5 Sudoeste 13 Sudoeste 0 -- -- 52
2019-06-15 15:00:00 13.3 6 Sudoeste 16 Sur 0 -- -- 60
2019-06-15 14:00:00 12 6 Sur 19 Sudeste 0 -- -- 67
2019-06-15 13:00:00 11.3 8 Sudeste 17 Este 0 -- -- 69
2019-06-15 12:00:00 9.7 6 Sur 12 Sudeste 0 -- -- 79
2019-06-15 11:00:00 7.5 0 Calma 8 Sur 0 -- -- 89
2019-06-15 10:00:00 6.7 0 Calma 4 Sudeste 0 -- -- 94
2019-06-15 09:00:00 6 3 Sudoeste 5 Este 0 -- -- 95
2019-06-15 08:00:00 5 0 Calma 3 Oeste 0 -- -- 98
2019-06-15 07:00:00 4.6 0 Calma 4 Noroeste 0 -- -- 97
2019-06-15 06:00:00 4.9 3 Noroeste 4 Noroeste 0 -- -- 95
2019-06-15 05:00:00 4.7 0 Calma 6 Noroeste 0 -- -- 98
2019-06-15 04:00:00 4.9 4 Noroeste 8 Oeste 0 -- -- 94
2019-06-15 03:00:00 5.8 0 Calma 4 Sur 0 -- -- 97
2019-06-15 02:00:00 6 0 Calma 6 Oeste 0.2 -- -- 98
2019-06-15 01:00:00 6.3 0 Calma 5 Norte 0.2 -- -- 98
2019-06-15 00:00:00 6.4 2 Nordeste 13 Noroeste 1.4 -- -- 96
2019-06-14 23:00:00 7.4 3 Noroeste 11 Noroeste 0 -- -- 89
2019-06-14 22:00:00 8.3 4 Oeste 15 Noroeste 0 -- -- 81
2019-06-14 21:00:00 9.3 5 Noroeste 16 Noroeste 0 -- -- 80
2019-06-14 20:00:00 10.2 5 Oeste 21 Oeste 0 -- -- 75
2019-06-14 19:00:00 11.6 7 Noroeste 26 Oeste 0 -- -- 73
2019-06-14 18:00:00 11.4 12 Noroeste 25 Oeste 0 -- -- 70
2019-06-14 17:00:00 12.2 6 Noroeste 26 Noroeste 0 -- -- 65
2019-06-14 16:00:00 12.8 6 Noroeste 16 Noroeste 0 -- -- 64
2019-06-14 15:00:00 12.2 4 Norte 11 Este 0 -- -- 69
2019-06-14 14:00:00 12.8 4 Nordeste 13 Sudeste 0 -- -- 61
2019-06-14 13:00:00 12.5 3 Sur 13 Sur 0 -- -- 66
2019-06-14 12:00:00 10.5 4 Oeste 14 Sur 0 -- -- 69
2019-06-14 11:00:00 9.3 3 Sur 11 Noroeste 0 -- -- 74
2019-06-14 10:00:00 8.5 3 Sur 8 Sur 0 -- -- 77
2019-06-14 09:00:00 6.7 2 Sur 6 Sur 0 -- -- 89
2019-06-14 08:00:00 2.1 2 Noroeste 6 Noroeste 0 -- -- 99
2019-06-14 07:00:00 1.3 2 Noroeste 6 Noroeste 0 -- -- 98
2019-06-14 06:00:00 1.8 3 Noroeste 8 Oeste 0 -- -- 98
2019-06-14 05:00:00 2.1 3 Noroeste 13 Este 0 -- -- 96
2019-06-14 04:00:00 4.6 8 Este 15 Este 0 -- -- 95
2019-06-14 03:00:00 4.9 0 Calma 4 Norte 0 -- -- 95
2019-06-14 02:00:00 5.5 0 Calma 5 Este 0 -- -- 95
2019-06-14 01:00:00 6 0 Calma 3 Sur 0 -- -- 96
2019-06-14 00:00:00 6.3 0 Calma 5 Sudoeste 0 -- -- 96
2019-06-13 23:00:00 6.6 2 Oeste 6 Sur 0 -- -- 94
2019-06-13 22:00:00 7.1 0 Calma 13 Noroeste 0 -- -- 92
2019-06-13 21:00:00 8.1 4 Oeste 19 Oeste 0 -- -- 86
2019-06-13 20:00:00 9.1 9 Oeste 21 Noroeste 0 -- -- 77
2019-06-13 19:00:00 9.4 15 Noroeste 24 Noroeste 0 -- -- 76
2019-06-13 18:00:00 10.1 9 Noroeste 27 Noroeste 0 -- -- 72
2019-06-13 17:00:00 10 13 Noroeste 23 Noroeste 0 -- -- 74
2019-06-13 16:00:00 12.7 5 Nordeste 18 Noroeste 0 -- -- 62
2019-06-13 15:00:00 12.5 5 Nordeste 15 Sur 0 -- -- 64
2019-06-13 14:00:00 12.7 3 Noroeste 17 Oeste 0 -- -- 57
2019-06-13 13:00:00 12.4 6 Noroeste 16 Sudeste 0 -- -- 53
2019-06-13 12:00:00 11.6 7 Sudeste 23 Sudeste 0 -- -- 61
2019-06-13 11:00:00 9.6 4 Noroeste 11 Sudeste 0 -- -- 72
2019-06-13 10:00:00 8 3 Sur 10 Sudeste 0 -- -- 77
2019-06-13 09:00:00 6 3 Sudeste 9 Sur 0 -- -- 90
2019-06-13 08:00:00 3.9 4 Sudeste 8 Sudeste 0 -- -- 98
2019-06-13 07:00:00 3 0 Calma 5 Oeste 0 -- -- 98
2019-06-13 06:00:00 3.2 2 Oeste 5 Noroeste 0 -- -- 96
2019-06-13 05:00:00 4.2 2 Nordeste 4 Nordeste 0 -- -- 97
2019-06-13 04:00:00 4.5 0 Calma 4 Noroeste 0 -- -- 97
2019-06-13 03:00:00 4.6 0 Calma 4 Sudeste 0 -- -- 98
2019-06-13 02:00:00 4.9 0 Calma 4 Noroeste 0 -- -- 99
2019-06-13 01:00:00 5 0 Calma 3 Noroeste 0 -- -- 98
2019-06-13 00:00:00 5.3 0 Calma 6 Sur 0 -- -- 97
2019-06-12 23:00:00 5.8 0 Calma 8 Oeste 0 -- -- 95
2019-06-12 22:00:00 6.6 2 Sudoeste 12 Este 0 -- -- 92
2019-06-12 21:00:00 8.3 7 Norte 22 Oeste 0 -- -- 80
2019-06-12 20:00:00 9.9 12 Noroeste 21 Noroeste 0 -- -- 71
2019-06-12 19:00:00 10.6 13 Noroeste 24 Oeste 0 -- -- 63
2019-06-12 18:00:00 10.2 11 Noroeste 23 Noroeste 0 -- -- 63
2019-06-12 17:00:00 11.3 7 Noroeste 21 Noroeste 0 -- -- 59
2019-06-12 16:00:00 9.8 6 Noroeste 22 Oeste 0 -- -- 67
2019-06-12 15:00:00 11 7 Sudoeste 20 Sur 0 -- -- 66
2019-06-12 14:00:00 9.5 7 Noroeste 16 Noroeste 0 -- -- 66
2019-06-12 13:00:00 9.3 8 Sur 18 Sudeste 0 -- -- 68
2019-06-12 12:00:00 7.6 6 Sudeste 15 Sudeste 0 -- -- 78
2019-06-12 11:00:00 6.4 3 Nordeste 9 Noroeste 0 -- -- 87
2019-06-12 10:00:00 5.1 4 Sudeste 12 Sur 0 -- -- 100
2019-06-12 09:00:00 3.2 0 Calma 6 Sur 0 -- -- 100
2019-06-12 08:00:00 2.3 0 Calma 8 Sudeste 0 -- -- 100
2019-06-12 07:00:00 2.1 0 Calma 9 Oeste 0.2 -- -- 99
2019-06-12 06:00:00 2.1 0 Calma 6 Sur 0.2 -- -- 99
2019-06-12 05:00:00 1.9 2 Oeste 14 Oeste 0 -- -- 98
2019-06-12 04:00:00 1.8 3 Sudoeste 15 Oeste 0 -- -- 96
2019-06-12 03:00:00 2.1 3 Oeste 19 Oeste 0 -- -- 94
2019-06-12 02:00:00 2.2 5 Noroeste 19 Oeste 0.4 -- -- 93
2019-06-12 01:00:00 2.9 3 Oeste 10 Oeste 0.4 -- -- 96
2019-06-12 00:00:00 3.2 4 Oeste 10 Sudoeste 0.2 -- -- 95
2019-06-11 23:00:00 3.7 0 Calma 16 Noroeste 0 -- -- 94
2019-06-11 22:00:00 4.2 5 Oeste 20 Oeste 0.2 -- -- 90
2019-06-11 21:00:00 4.8 5 Noroeste 21 Noroeste 0 -- -- 87
2019-06-11 20:00:00 5.3 7 Oeste 19 Noroeste 0 -- -- 87
2019-06-11 19:00:00 5.6 2 Noroeste 15 Noroeste 0.2 -- -- 91
2019-06-11 18:00:00 5.9 10 Noroeste 25 Noroeste 0.2 -- -- 89
2019-06-11 17:00:00 6.2 3 Oeste 19 Sudoeste 0 -- -- 88
2019-06-11 16:00:00 5.5 4 Sur 20 Oeste 0.6 -- -- 94
2019-06-11 15:00:00 5 4 Sudeste 14 Sur 0.2 -- -- 96
2019-06-11 14:00:00 4.7 5 Sur 22 Sudoeste 0.6 -- -- 94
2019-06-11 13:00:00 4.9 5 Sudeste 26 Este 0.4 -- -- 92
2019-06-11 12:00:00 3.8 5 Sudeste 25 Sudeste 0.6 -- -- 98
2019-06-11 11:00:00 2.6 9 Este 22 Este 1.4 -- -- 96
2019-06-11 10:00:00 3 5 Sudoeste 19 Este 0.2 -- -- 95
2019-06-11 09:00:00 3.3 3 Nordeste 26 Sur 0 -- -- 96
2019-06-11 08:00:00 2.5 4 Sudoeste 16 Sur 0.6 -- -- 98
2019-06-11 07:00:00 2.7 4 Sudeste 10 Sudeste 2.6 -- -- 97
2019-06-11 06:00:00 3.2 6 Sur 20 Oeste 1.2 -- -- 97
2019-06-11 05:00:00 3.6 3 Oeste 14 Oeste 2 -- -- 98
2019-06-11 04:00:00 3.8 0 Calma 8 Sudeste 0.2 -- -- 97
2019-06-11 03:00:00 3.8 2 Sudeste 5 Sudeste 0.2 -- -- 94
2019-06-11 02:00:00 4.1 4 Oeste 17 Oeste 0 -- -- 89
2019-06-11 01:00:00 4.7 3 Oeste 15 Oeste 0 -- -- 91
2019-06-11 00:00:00 5.1 4 Sudoeste 18 Oeste 0.2 -- -- 92
2019-06-10 23:00:00 5.7 5 Oeste 19 Oeste 0.4 -- -- 91
2019-06-10 22:00:00 6.4 6 Oeste 22 Noroeste 0 -- -- 88
2019-06-10 21:00:00 7.3 8 Noroeste 21 Oeste 0 -- -- 85
2019-06-10 20:00:00 8.3 4 Noroeste 19 Noroeste 0 -- -- 78
2019-06-10 19:00:00 9.6 7 Noroeste 22 Noroeste 0 -- -- 72
2019-06-10 18:00:00 10.3 10 Noroeste 23 Noroeste 0 -- -- 66
2019-06-10 17:00:00 11.8 5 Oeste 20 Sudoeste 0 -- -- 60
2019-06-10 16:00:00 12.9 3 Sudeste 20 Sur 0 -- -- 61
2019-06-10 15:00:00 12.9 5 Sudeste 16 Sur 0 -- -- 62
2019-06-10 14:00:00 12.9 7 Sudeste 21 Sudeste 0 -- -- 64
2019-06-10 13:00:00 11.4 6 Sudeste 19 Sur 0 -- -- 69
2019-06-10 12:00:00 9.5 9 Sudeste 18 Sudeste 0 -- -- 73
2019-06-10 11:00:00 5.9 5 Noroeste 12 Noroeste 0 -- -- 89
2019-06-10 10:00:00 4.6 3 Sur 6 Sur 0 -- -- 99
2019-06-10 09:00:00 3.6 3 Noroeste 5 Noroeste 0 -- -- 99
2019-06-10 08:00:00 2.5 2 Noroeste 5 Noroeste 0 -- -- 100
2019-06-10 07:00:00 1 4 Noroeste 6 Noroeste 0 -- -- 99
2019-06-10 06:00:00 1.5 4 Noroeste 6 Noroeste 0 -- -- 99
2019-06-10 05:00:00 1.8 4 Noroeste 7 Noroeste 0 -- -- 99
2019-06-10 04:00:00 1.6 4 Noroeste 6 Noroeste 0 -- -- 98
2019-06-10 03:00:00 2.1 3 Noroeste 5 Noroeste 0 -- -- 97
2019-06-10 02:00:00 3.7 0 Calma 5 Noroeste 0 -- -- 97
2019-06-10 01:00:00 4.7 2 Noroeste 4 Noroeste 0 -- -- 96
2019-06-10 00:00:00 5.9 0 Calma 10 Sur 0 -- -- 98
2019-06-09 23:00:00 6.1 3 Sudoeste 14 Noroeste 0 -- -- 97
2019-06-09 22:00:00 6.6 2 Oeste 13 Noroeste 0 -- -- 95
2019-06-09 21:00:00 7.6 2 Oeste 12 Oeste 0 -- -- 89
2019-06-09 20:00:00 8.4 5 Noroeste 18 Oeste 0 -- -- 84
2019-06-09 19:00:00 8.9 4 Oeste 25 Oeste 0 -- -- 84
2019-06-09 18:00:00 9.9 12 Noroeste 27 Oeste 0 -- -- 76
2019-06-09 17:00:00 10 12 Noroeste 22 Oeste 0 -- -- 79
2019-06-09 16:00:00 10.8 10 Nordeste 22 Oeste 0 -- -- 77
2019-06-09 15:00:00 10.9 4 Sudoeste 18 Oeste 0 -- -- 74
2019-06-09 14:00:00 12.5 6 Sur 17 Sur 0 -- -- 67
2019-06-09 13:00:00 12.2 8 Sudeste 18 Sudoeste 0 -- -- 73
2019-06-09 12:00:00 8.9 3 Noroeste 13 Sur 0 -- -- 87
2019-06-09 11:00:00 6 2 Noroeste 6 Sur 0 -- -- 100
2019-06-09 10:00:00 5.1 2 Sur 7 Sudoeste 0 -- -- 100
2019-06-09 09:00:00 4.1 2 Noroeste 6 Oeste 0 -- -- 100
2019-06-09 08:00:00 3.3 2 Norte 6 Oeste 0 -- -- 100
2019-06-09 07:00:00 2.7 0 Calma 3 Noroeste 0 -- -- 99
2019-06-09 06:00:00 2.5 2 Oeste 6 Noroeste 0 -- -- 98
2019-06-09 05:00:00 3.8 0 Calma 5 Oeste 0 -- -- 98
2019-06-09 04:00:00 4.9 0 Calma 6 Norte 0 -- -- 99
2019-06-09 03:00:00 5.4 4 Este 14 Este 0 -- -- 100
2019-06-09 02:00:00 5.3 2 Nordeste 4 Nordeste 0 -- -- 99
2019-06-09 01:00:00 6 0 Calma 4 Oeste 0 -- -- 99
2019-06-09 00:00:00 6.3 0 Calma 4 Sur 0 -- -- 99
2019-06-08 23:00:00 6.2 2 Noroeste 6 Sur 0 -- -- 99
2019-06-08 22:00:00 6.5 2 Sudeste 6 Nordeste 0 -- -- 98
2019-06-08 21:00:00 7.1 0 Calma 10 Oeste 0 -- -- 96
2019-06-08 20:00:00 8.1 2 Sur 19 Norte 0 -- -- 90
2019-06-08 19:00:00 8.2 9 Noroeste 24 Noroeste 0 -- -- 88
2019-06-08 18:00:00 9.5 14 Noroeste 24 Noroeste 0 -- -- 82
2019-06-08 17:00:00 12.4 5 Norte 15 Oeste 0 -- -- 69
2019-06-08 16:00:00 13.4 5 Oeste 13 Oeste 0 -- -- 51
2019-06-08 15:00:00 12.4 3 Este 15 Sur 0 -- -- 50
2019-06-08 14:00:00 12.2 7 Sudeste 21 Sudeste 0 -- -- 58
2019-06-08 13:00:00 10.5 6 Sur 18 Sur 0 -- -- 62
2019-06-08 12:00:00 9.1 6 Sur 17 Este 0 -- -- 73
2019-06-08 11:00:00 6.8 9 Este 20 Este 0 -- -- 77
2019-06-08 10:00:00 5.8 9 Este 23 Este 0 -- -- 81
2019-06-08 09:00:00 3.3 14 Nordeste 24 Este 0.2 -- -- 92
2019-06-08 08:00:00 1.9 12 Nordeste 21 Este 0 -- -- 100
2019-06-08 07:00:00 0.4 2 Noroeste 13 Nordeste 0 -- -- 100
2019-06-08 06:00:00 0.1 4 Norte 6 Noroeste 0 -- -- 100
2019-06-08 05:00:00 0.1 3 Noroeste 5 Noroeste 0 -- -- 100
2019-06-08 04:00:00 0.5 4 Noroeste 6 Noroeste 0 -- -- 100
2019-06-08 03:00:00 1 3 Noroeste 5 Noroeste 0 -- -- 100
2019-06-08 02:00:00 0.9 4 Noroeste 7 Noroeste 0 -- -- 100
2019-06-08 01:00:00 1.2 4 Noroeste 6 Noroeste 0 -- -- 99
2019-06-08 00:00:00 2.5 4 Noroeste 6 Noroeste 0 -- -- 97
2019-06-07 23:00:00 3.7 2 Noroeste 6 Noroeste 0 -- -- 98
2019-06-07 22:00:00 4.2 2 Noroeste 4 Noroeste 0 -- -- 97
2019-06-07 21:00:00 4.4 2 Noroeste 6 Noroeste 0.2 -- -- 97
2019-06-07 20:00:00 5 2 Este 10 Noroeste 0.8 -- -- 96
2019-06-07 19:00:00 6.6 3 Sudeste 9 Sur 0 -- -- 92
2019-06-07 18:00:00 4.8 0 Calma 13 Noroeste 0.6 -- -- 96
2019-06-07 17:00:00 6.9 5 Sur 13 Sudeste 0 -- -- 88
2019-06-07 16:00:00 5.7 4 Sur 12 Sudeste 0 -- -- 96
2019-06-07 15:00:00 4.3 3 Nordeste 24 Noroeste 0.4 -- -- 98
2019-06-07 14:00:00 4.9 15 Noroeste 31 Norte 0 -- -- 88
2019-06-07 13:00:00 5.2 8 Noroeste 37 Oeste 0 -- -- 86
2019-06-07 12:00:00 3.9 4 Noroeste 19 Oeste 0 -- -- 97
2019-06-07 11:00:00 2.6 5 Noroeste 27 Oeste 0.2 -- -- 97
2019-06-07 10:00:00 1.9 5 Noroeste 15 Noroeste 0.4 -- -- 98
2019-06-07 09:00:00 1.6 3 Norte 15 Oeste 0.6 -- -- 99
2019-06-07 08:00:00 1.7 6 Noroeste 28 Noroeste 0.4 -- -- 97
2019-06-07 07:00:00 1.5 7 Noroeste 31 Oeste 0.4 -- -- 96
2019-06-07 06:00:00 1.9 8 Noroeste 34 Noroeste 0.2 -- -- 96
2019-06-07 05:00:00 1.9 10 Noroeste 31 Oeste 0.6 -- -- 97
2019-06-07 04:00:00 1.4 7 Noroeste 27 Oeste 1.2 -- -- 99
2019-06-07 03:00:00 1.2 5 Noroeste 28 Noroeste 3 -- -- 98
2019-06-07 02:00:00 2.5 6 Noroeste 21 Sudoeste 0.6 -- -- 97
2019-06-07 01:00:00 2.9 8 Noroeste 17 Oeste 1.6 -- -- 98
2019-06-07 00:00:00 3.3 6 Noroeste 17 Noroeste 2 -- -- 96
2019-06-06 23:00:00 4.1 5 Nordeste 12 Noroeste 0 -- -- 94
2019-06-06 22:00:00 4.5 6 Norte 26 Sudeste 0 -- -- 93
2019-06-06 21:00:00 5.2 8 Norte 36 Sur 0 -- -- 91
2019-06-06 20:00:00 6.1 3 Norte 32 Nordeste 5.8 -- -- 98
2019-06-06 19:00:00 6.6 6 Nordeste 37 Oeste 6.2 -- -- 97
2019-06-06 18:00:00 6 11 Norte 56 Noroeste 7.8 -- -- 95
2019-06-06 17:00:00 6 9 Noroeste 43 Noroeste 5.4 -- -- 94
2019-06-06 16:00:00 6.8 13 Oeste 40 Noroeste 1.8 -- -- 83
2019-06-06 15:00:00 8.2 8 Oeste 32 Oeste 0 -- -- 73
2019-06-06 14:00:00 8.2 10 Sudeste 48 Sudeste 0 -- -- 74
2019-06-06 13:00:00 8 9 Norte 38 Nordeste 0 -- -- 75
2019-06-06 12:00:00 7.4 11 Nordeste 25 Nordeste 0 -- -- 79
2019-06-06 11:00:00 7 7 Sudeste 23 Este 0 -- -- 81
2019-06-06 10:00:00 4.7 8 Sudeste 25 Este 0 -- -- 87
2019-06-06 09:00:00 4.6 7 Norte 15 Sudoeste 0 -- -- 91
2019-06-06 08:00:00 2.6 0 Calma 7 Noroeste 0 -- -- 99
2019-06-06 07:00:00 2.3 3 Norte 9 Noroeste 0 -- -- 99
2019-06-06 06:00:00 2.1 5 Noroeste 10 Noroeste 0 -- -- 99
2019-06-06 05:00:00 1.1 3 Oeste 8 Noroeste 0 -- -- 100
2019-06-06 04:00:00 1.7 0 Calma 6 Noroeste 0 -- -- 99
2019-06-06 03:00:00 2.2 0 Calma 6 Oeste 0 -- -- 100
2019-06-06 02:00:00 2.2 2 Noroeste 3 Noroeste 0 -- -- 100
2019-06-06 01:00:00 2 2 Noroeste 6 Noroeste 0 -- -- 99
2019-06-06 00:00:00 2.5 3 Noroeste 5 Noroeste 0 -- -- 99
2019-06-05 23:00:00 2.5 2 Noroeste 5 Noroeste 0 -- -- 99
2019-06-05 22:00:00 2.5 2 Noroeste 18 Noroeste 0.6 -- -- 98
2019-06-05 21:00:00 3.7 2 Oeste 6 Noroeste 0.4 -- -- 98
2019-06-05 20:00:00 3.3 3 Noroeste 5 Oeste 0.2 -- -- 98
2019-06-05 19:00:00 3.8 4 Noroeste 13 Noroeste 1 -- -- 96
2019-06-05 18:00:00 4.8 3 Sur 18 Norte 1 -- -- 96
2019-06-05 17:00:00 6.3 4 Nordeste 19 Norte 0.2 -- -- 92
2019-06-05 16:00:00 6.8 3 Norte 12 Sur 0 -- -- 94
2019-06-05 15:00:00 4.9 4 Noroeste 14 Noroeste 0.2 -- -- 99
2019-06-05 14:00:00 6.2 4 Norte 16 Noroeste 1 -- -- 100
2019-06-05 13:00:00 4.8 3 Noroeste 13 Noroeste 0.6 -- -- 99
2019-06-05 12:00:00 3.9 3 Norte 9 Este 0 -- -- 100
2019-06-05 11:00:00 3.7 3 Nordeste 8 Nordeste 0.8 -- -- 100
2019-06-05 10:00:00 3.7 3 Nordeste 12 Oeste 1 -- -- 100
2019-06-05 09:00:00 3.8 2 Nordeste 9 Noroeste 0.8 -- -- 100
2019-06-05 08:00:00 3.6 3 Oeste 12 Noroeste 0.4 -- -- 100
2019-06-05 07:00:00 3.6 2 Norte 11 Noroeste 0.6 -- -- 100
2019-06-05 06:00:00 3.7 0 Calma 10 Noroeste 0.8 -- -- 100
2019-06-05 05:00:00 4 0 Calma 6 Oeste 0 -- -- 99
2019-06-05 04:00:00 3.7 5 Oeste 15 Oeste 0.4 -- -- 95
2019-06-05 03:00:00 4.4 4 Noroeste 8 Noroeste 0.2 -- -- 99
2019-06-05 02:00:00 4.6 2 Noroeste 7 Oeste 0 -- -- 99
2019-06-05 01:00:00 4.8 0 Calma 7 Oeste 0 -- -- 99
2019-06-05 00:00:00 5.1 0 Calma 13 Sudoeste 0 -- -- 98
2019-06-04 23:00:00 5.8 2 Norte 10 Sudoeste 0 -- -- 99
2019-06-04 22:00:00 6.1 2 Oeste 10 Oeste 0 -- -- 98
2019-06-04 21:00:00 7 0 Calma 12 Sudeste 0.4 -- -- 96
2019-06-04 20:00:00 8.8 4 Nordeste 10 Nordeste 0 -- -- 89
2019-06-04 19:00:00 10.4 3 Nordeste 7 Norte 0 -- -- 85
2019-06-04 18:00:00 9.9 2 Oeste 12 Sur 0 -- -- 89
2019-06-04 17:00:00 8.9 2 Sudeste 12 Noroeste 0 -- -- 96
2019-06-04 16:00:00 8.7 3 Nordeste 9 Este 2.4 -- -- 97
2019-06-04 15:00:00 9.5 2 Nordeste 12 Nordeste 1 -- -- 98
2019-06-04 14:00:00 9.4 4 Nordeste 12 Este 5 -- -- 96
2019-06-04 13:00:00 12 4 Noroeste 20 Noroeste 0.2 -- -- 94
2019-06-04 12:00:00 10 6 Noroeste 17 Noroeste 0.4 -- -- 92
2019-06-04 11:00:00 10.7 4 Norte 10 Noroeste 0 -- -- 81
2019-06-04 10:00:00 9.9 0 Calma 9 Sudeste 0 -- -- 83
2019-06-04 09:00:00 9.5 3 Nordeste 12 Este 0 -- -- 81
2019-06-04 08:00:00 8.5 0 Calma 14 Noroeste 0 -- -- 85
2019-06-04 07:00:00 8.7 4 Noroeste 11 Sudeste 0 -- -- 84
2019-06-04 06:00:00 10.2 3 Norte 10 Sudeste 0 -- -- 77
2019-06-04 05:00:00 9.8 2 Este 12 Noroeste 0 -- -- 80
2019-06-04 04:00:00 9.7 0 Calma 15 Noroeste 0 -- -- 80
2019-06-04 03:00:00 10.4 5 Noroeste 14 Noroeste 0 -- -- 86
2019-06-04 02:00:00 9.8 3 Noroeste 6 Noroeste 0 -- -- 91
2019-06-04 01:00:00 11.5 3 Noroeste 13 Noroeste 0 -- -- 91
2019-06-04 00:00:00 12.1 6 Noroeste 11 Noroeste 0 -- -- 87
2019-06-03 23:00:00 12.3 5 Noroeste 8 Noroeste 0 -- -- 88
2019-06-03 22:00:00 14.4 3 Noroeste 6 Nordeste 0 -- -- 80
2019-06-03 21:00:00 16.3 3 Nordeste 10 Oeste 0 -- -- 74
2019-06-03 20:00:00 17.5 3 Nordeste 14 Noroeste 0 -- -- 71
2019-06-03 19:00:00 19.4 4 Este 10 Sudeste 0 -- -- 65
2019-06-03 18:00:00 21.1 3 Norte 14 Noroeste 0 -- -- 57
2019-06-03 17:00:00 21.8 5 Nordeste 20 Nordeste 0 -- -- 50
2019-06-03 16:00:00 21.8 5 Este 23 Sudeste 0 -- -- 48
2019-06-03 15:00:00 20.3 4 Nordeste 20 Sur 0 -- -- 52
2019-06-03 14:00:00 20.2 8 Sur 18 Sur 0 -- -- 54
2019-06-03 13:00:00 18.5 4 Oeste 15 Oeste 0 -- -- 55
2019-06-03 12:00:00 18.3 4 Sudeste 13 Sudoeste 0 -- -- 56
2019-06-03 11:00:00 16.7 3 Sudeste 10 Sudeste 0 -- -- 59
2019-06-03 10:00:00 14.5 3 Sudeste 5 Sur 0 -- -- 65
2019-06-03 09:00:00 12.4 0 Calma 2 Noroeste 0 -- -- 69
2019-06-03 08:00:00 10.7 0 Calma 5 Noroeste 0 -- -- 79
2019-06-03 07:00:00 10.4 2 Noroeste 6 Noroeste 0 -- -- 78
2019-06-03 06:00:00 11 0 Calma 6 Oeste 0 -- -- 75
2019-06-03 05:00:00 10.3 2 Noroeste 7 Norte 0 -- -- 79
2019-06-03 04:00:00 10.4 4 Noroeste 5 Noroeste 0 -- -- 77
2019-06-03 03:00:00 12.2 0 Calma 12 Noroeste 0 -- -- 69
2019-06-03 02:00:00 12.4 4 Oeste 7 Noroeste 0 -- -- 69
2019-06-03 01:00:00 12.6 3 Noroeste 7 Noroeste 0 -- -- 71
2019-06-03 00:00:00 12.6 3 Noroeste 8 Noroeste 0 -- -- 67
2019-06-02 23:00:00 13.3 4 Noroeste 7 Norte 0 -- -- 63
2019-06-02 22:00:00 14.9 3 Noroeste 6 Noroeste 0 -- -- 59
2019-06-02 21:00:00 17.1 3 Noroeste 6 Oeste 0 -- -- 53
2019-06-02 20:00:00 19.2 3 Norte 9 Este 0 -- -- 44
2019-06-02 19:00:00 21.3 3 Norte 9 Noroeste 0 -- -- 42
2019-06-02 18:00:00 21.1 2 Noroeste 17 Nordeste 0 -- -- 39
2019-06-02 17:00:00 21.7 4 Sudoeste 17 Sudeste 0 -- -- 36
2019-06-02 16:00:00 21.8 6 Sudeste 16 Sudeste 0 -- -- 31
2019-06-02 15:00:00 22.3 4 Noroeste 17 Sur 0 -- -- 35
2019-06-02 14:00:00 22 5 Nordeste 16 Sudoeste 0 -- -- 36
2019-06-02 13:00:00 22.5 5 Este 17 Sur 0 -- -- 36
2019-06-02 12:00:00 21.4 4 Norte 11 Noroeste 0 -- -- 37
2019-06-02 11:00:00 20.6 4 Noroeste 9 Sudeste 0 -- -- 34
2019-06-02 10:00:00 18.3 2 Este 8 Noroeste 0 -- -- 35
2019-06-02 09:00:00 12.1 6 Noroeste 10 Oeste 0 -- -- 67
2019-06-02 08:00:00 10.6 4 Noroeste 9 Noroeste 0 -- -- 67
2019-06-02 07:00:00 10 4 Noroeste 8 Noroeste 0 -- -- 68
2019-06-02 06:00:00 9.3 5 Noroeste 9 Noroeste 0 -- -- 76
2019-06-02 05:00:00 10.5 5 Noroeste 9 Noroeste 0 -- -- 74
2019-06-02 04:00:00 11.2 6 Noroeste 9 Noroeste 0 -- -- 71
2019-06-02 03:00:00 11.3 3 Noroeste 8 Noroeste 0 -- -- 76
2019-06-02 02:00:00 11.7 5 Noroeste 8 Noroeste 0 -- -- 82
2019-06-02 01:00:00 12.3 7 Noroeste 8 Noroeste 0 -- -- 80
2019-06-02 00:00:00 13.6 6 Noroeste 8 Noroeste 0 -- -- 75
2019-06-01 23:00:00 15.6 4 Noroeste 12 Noroeste 0 -- -- 72
2019-06-01 22:00:00 19 5 Noroeste 17 Noroeste 0 -- -- 58
2019-06-01 21:00:00 22.6 4 Noroeste 15 Oeste 0 -- -- 36
2019-06-01 20:00:00 24.6 5 Noroeste 15 Noroeste 0 -- -- 36
2019-06-01 19:00:00 25.5 6 Noroeste 17 Noroeste 0 -- -- 34
2019-06-01 18:00:00 26.3 4 Este 12 Sudoeste 0 -- -- 34
2019-06-01 17:00:00 25 4 Este 10 Sur 0 -- -- 38
2019-06-01 16:00:00 25.5 4 Noroeste 19 Noroeste 0 -- -- 37
2019-06-01 15:00:00 26 5 Oeste 17 Sudeste 0 -- -- 32
2019-06-01 14:00:00 25.6 5 Este 21 Noroeste 0 -- -- 34
2019-06-01 13:00:00 25.1 6 Sudeste 21 Sudeste 0 -- -- 30
2019-06-01 12:00:00 24.7 5 Sudeste 14 Sudoeste 0 -- -- 38
2019-06-01 11:00:00 23.4 4 Sudeste 14 Este 0 -- -- 39
2019-06-01 10:00:00 20.7 9 Este 22 Este 0 -- -- 43
2019-06-01 09:00:00 19.1 15 Este 22 Nordeste 0 -- -- 44
2019-06-01 08:00:00 16.4 12 Nordeste 20 Nordeste 0 -- -- 49
2019-06-01 07:00:00 15.3 12 Nordeste 16 Nordeste 0 -- -- 52
2019-06-01 06:00:00 13.3 7 Norte 13 Nordeste 0 -- -- 60
2019-06-01 05:00:00 14.8 4 Norte 14 Nordeste 0 -- -- 57
2019-06-01 04:00:00 14.9 6 Norte 22 Nordeste 0 -- -- 54
2019-06-01 03:00:00 17.4 15 Nordeste 26 Nordeste 0 -- -- 49
2019-06-01 02:00:00 14.5 5 Norte 17 Este 0 -- -- 58
2019-06-01 01:00:00 13.4 5 Noroeste 9 Noroeste 0 -- -- 66
2019-06-01 00:00:00 14.2 3 Oeste 8 Noroeste 0 -- -- 61
2019-05-31 23:00:00 15.6 3 Noroeste 8 Noroeste 0 -- -- 57
2019-05-31 22:00:00 19.6 2 Sudeste 19 Noroeste 0 -- -- 45
2019-05-31 21:00:00 22.1 9 Norte 22 Noroeste 0 -- -- 42
2019-05-31 20:00:00 24.4 8 Noroeste 19 Oeste 0 -- -- 37
2019-05-31 19:00:00 25.2 8 Noroeste 19 Noroeste 0 -- -- 36
2019-05-31 18:00:00 25.3 7 Noroeste 23 Noroeste 0 -- -- 37
2019-05-31 17:00:00 25.3 6 Oeste 21 Oeste 0 -- -- 36
2019-05-31 16:00:00 25.6 11 Noroeste 22 Oeste 0 -- -- 36
2019-05-31 15:00:00 25.5 5 Nordeste 22 Sur 0 -- -- 34
2019-05-31 14:00:00 25.6 8 Sur 15 Sudeste 0 -- -- 34
2019-05-31 13:00:00 24.8 8 Sudeste 16 Sur 0 -- -- 38
2019-05-31 12:00:00 23.4 5 Sur 14 Sur 0 -- -- 40
2019-05-31 11:00:00 22.2 6 Sudeste 10 Sudeste 0 -- -- 45
2019-05-31 10:00:00 20.5 4 Sudeste 6 Sudeste 0 -- -- 50
2019-05-31 09:00:00 16.7 0 Calma 7 Noroeste 0 -- -- 65
2019-05-31 08:00:00 11.1 3 Noroeste 12 Nordeste 0 -- -- 78
2019-05-31 07:00:00 11.1 4 Noroeste 15 Nordeste 0 -- -- 74
2019-05-31 06:00:00 13.9 8 Nordeste 18 Nordeste 0 -- -- 61
2019-05-31 05:00:00 14.8 8 Nordeste 17 Nordeste 0 -- -- 57
2019-05-31 04:00:00 15.4 11 Nordeste 18 Nordeste 0 -- -- 52
2019-05-31 03:00:00 15.8 10 Nordeste 19 Nordeste 0 -- -- 55
2019-05-31 02:00:00 15.8 3 Noroeste 23 Nordeste 0 -- -- 56
2019-05-31 01:00:00 16.8 16 Nordeste 24 Este 0 -- -- 61
2019-05-31 00:00:00 16.3 11 Nordeste 17 Este 0 -- -- 61
2019-05-30 23:00:00 13.8 3 Noroeste 7 Sudeste 0 -- -- 62
2019-05-30 22:00:00 17.5 3 Noroeste 22 Norte 0 -- -- 53
2019-05-30 21:00:00 20.1 14 Norte 32 Nordeste 0 -- -- 43
2019-05-30 20:00:00 21.6 12 Nordeste 31 Nordeste 0 -- -- 46
2019-05-30 19:00:00 23.2 5 Norte 24 Noroeste 0 -- -- 39
2019-05-30 18:00:00 23.6 11 Noroeste 27 Norte 0 -- -- 37
2019-05-30 17:00:00 23.5 10 Nordeste 28 Oeste 0 -- -- 40
2019-05-30 16:00:00 23.2 10 Sudeste 23 Sur 0 -- -- 37
2019-05-30 15:00:00 24.5 8 Sudeste 21 Sur 0 -- -- 36
2019-05-30 14:00:00 23.7 8 Sudeste 21 Sur 0 -- -- 39
2019-05-30 13:00:00 23.4 6 Sudeste 17 Sur 0 -- -- 41
2019-05-30 12:00:00 21.1 4 Nordeste 16 Noroeste 0 -- -- 42
2019-05-30 11:00:00 19.5 4 Noroeste 10 Sudeste 0 -- -- 42
2019-05-30 10:00:00 19.6 4 Sudeste 8 Sur 0 -- -- 46
2019-05-30 09:00:00 15.5 0 Calma 5 Noroeste 0 -- -- 56
2019-05-30 08:00:00 9.6 3 Noroeste 6 Oeste 0 -- -- 79
2019-05-30 07:00:00 8.8 2 Noroeste 7 Noroeste 0 -- -- 74
2019-05-30 06:00:00 8.6 3 Oeste 8 Noroeste 0 -- -- 65
2019-05-30 05:00:00 9.1 4 Oeste 21 Nordeste 0 -- -- 61
2019-05-30 04:00:00 13.4 14 Nordeste 23 Este 0 -- -- 54
2019-05-30 03:00:00 12 4 Norte 25 Nordeste 0 -- -- 53
2019-05-30 02:00:00 12.4 4 Noroeste 24 Nordeste 0 -- -- 53
2019-05-30 01:00:00 14 15 Nordeste 24 Nordeste 0 -- -- 60
2019-05-30 00:00:00 13.6 11 Nordeste 17 Nordeste 0 -- -- 61
2019-05-29 23:00:00 10 3 Noroeste 6 Noroeste 0 -- -- 86
2019-05-29 22:00:00 12.2 3 Noroeste 6 Sudoeste 0 -- -- 78
2019-05-29 21:00:00 16.8 4 Sudoeste 19 Norte 0 -- -- 61
2019-05-29 20:00:00 18.5 12 Nordeste 22 Norte 0 -- -- 56
2019-05-29 19:00:00 19.2 10 Norte 22 Norte 0 -- -- 45
2019-05-29 18:00:00 19.5 12 Nordeste 26 Este 0 -- -- 43
2019-05-29 17:00:00 19.6 12 Norte 29 Este 0 -- -- 45
2019-05-29 16:00:00 19.5 11 Este 23 Nordeste 0 -- -- 44
2019-05-29 15:00:00 18.8 11 Norte 24 Norte 0 -- -- 45
2019-05-29 14:00:00 18.6 6 Norte 21 Nordeste 0 -- -- 51
2019-05-29 13:00:00 18.3 5 Nordeste 17 Sur 0 -- -- 53
2019-05-29 12:00:00 15.9 7 Sur 16 Sudeste 0 -- -- 59
2019-05-29 11:00:00 13.2 6 Sur 15 Sur 0 -- -- 63
2019-05-29 10:00:00 11.8 3 Sudeste 9 Sudeste 0 -- -- 70
2019-05-29 09:00:00 8.9 2 Sudeste 11 Sur 0 -- -- 79
2019-05-29 08:00:00 3.2 0 Calma 6 Sudoeste 0 -- -- 96
2019-05-29 07:00:00 2.9 3 Noroeste 7 Oeste 0 -- -- 97
2019-05-29 06:00:00 3 3 Sudoeste 8 Noroeste 0 -- -- 98
2019-05-29 05:00:00 2.4 3 Oeste 5 Oeste 0 -- -- 96
2019-05-29 04:00:00 3.4 0 Calma 8 Norte 0 -- -- 97
2019-05-29 03:00:00 3.8 0 Calma 4 Noroeste 0 -- -- 97
2019-05-29 02:00:00 4.1 0 Calma 4 Noroeste 0 -- -- 93
2019-05-29 01:00:00 4.8 0 Calma 3 Noroeste 0 -- -- 94
2019-05-29 00:00:00 5.3 0 Calma 13 Este 0 -- -- 90
2019-05-28 23:00:00 6.8 2 Sudoeste 21 Norte 0 -- -- 79
2019-05-28 22:00:00 8 10 Norte 21 Este 0 -- -- 74
2019-05-28 21:00:00 9.1 5 Sudeste 22 Sudoeste 0 -- -- 70
2019-05-28 20:00:00 11 8 Noroeste 33 Norte 0 -- -- 64
2019-05-28 19:00:00 11.7 10 Nordeste 28 Sudeste 0 -- -- 66
2019-05-28 18:00:00 12.9 9 Este 34 Nordeste 0 -- -- 60
2019-05-28 17:00:00 13.8 12 Noroeste 34 Noroeste 0 -- -- 51
2019-05-28 16:00:00 13.2 7 Noroeste 33 Noroeste 0 -- -- 54
2019-05-28 15:00:00 12.6 10 Noroeste 27 Noroeste 0 -- -- 52
2019-05-28 14:00:00 12.1 7 Oeste 26 Oeste 0 -- -- 54
2019-05-28 13:00:00 12.4 10 Norte 22 Sudeste 0 -- -- 57
2019-05-28 12:00:00 10.7 10 Nordeste 29 Nordeste 0 -- -- 59
2019-05-28 11:00:00 10.3 7 Sudeste 14 Sudeste 0 -- -- 63
2019-05-28 10:00:00 7 5 Sur 12 Sur 0 -- -- 79
2019-05-28 09:00:00 5.8 3 Este 6 Sudeste 0 -- -- 83
2019-05-28 08:00:00 2.5 2 Norte 5 Sur 0 -- -- 94
2019-05-28 07:00:00 3.7 0 Calma 4 Sur 0 -- -- 95
2019-05-28 06:00:00 3.9 0 Calma 5 Noroeste 0 -- -- 95
2019-05-28 05:00:00 4.4 0 Calma 3 Nordeste 0 -- -- 94
2019-05-28 04:00:00 4.7 2 Este 5 Sur 0 -- -- 95
2019-05-28 03:00:00 5 0 Calma 5 Sudeste 0 -- -- 95
2019-05-28 02:00:00 5.5 0 Calma 8 Sur 0 -- -- 96
2019-05-28 01:00:00 6.1 0 Calma 4 Noroeste 0 -- -- 93
2019-05-28 00:00:00 6.7 3 Sur 6 Sur 0 -- -- 94